createdAt,value
2018-10-19T00:01:53.801Z,87.70
2018-10-19T00:04:29.000Z,87.70
2018-10-19T00:07:06.254Z,87.50
2018-10-19T00:09:42.756Z,87.30
2018-10-19T00:12:18.676Z,87.30
2018-10-19T00:14:54.450Z,88.10
2018-10-19T00:17:30.375Z,88.60
2018-10-19T00:20:06.991Z,87.90
2018-10-19T00:22:43.032Z,87.30
2018-10-19T00:25:19.188Z,87.40
2018-10-19T00:27:55.615Z,87.60
2018-10-19T00:30:31.520Z,87.90
2018-10-19T00:33:07.486Z,87.50
2018-10-19T00:35:43.483Z,88.80
2018-10-19T00:38:19.950Z,87.90
2018-10-19T00:40:55.991Z,87.30
2018-10-19T00:43:31.936Z,87.60
2018-10-19T00:46:07.922Z,87.70
2018-10-19T00:48:44.732Z,88.00
2018-10-19T00:51:20.654Z,89.10
2018-10-19T00:53:56.244Z,88.30
2018-10-19T00:56:32.189Z,88.00
2018-10-19T00:59:08.117Z,88.20
2018-10-19T01:01:44.023Z,89.30
2018-10-19T01:04:19.768Z,88.60
2018-10-19T01:06:55.523Z,89.20
2018-10-19T01:09:31.442Z,89.30
2018-10-19T01:12:06.565Z,90.80
2018-10-19T01:17:49.607Z,90.80
2018-10-19T01:20:25.764Z,90.80
2018-10-19T01:23:00.914Z,90.10
2018-10-19T01:25:40.287Z,90.10
2018-10-19T01:28:16.608Z,88.20
2018-10-19T01:30:52.449Z,90.00
2018-10-19T01:33:28.241Z,89.30
2018-10-19T01:36:05.384Z,88.50
2018-10-19T01:38:41.863Z,88.00
2018-10-19T01:41:17.564Z,88.50
2018-10-19T01:43:53.549Z,87.70
2018-10-19T01:46:29.371Z,87.60
2018-10-19T01:49:05.273Z,87.90
2018-10-19T01:51:41.470Z,88.40
2018-10-19T01:54:18.060Z,88.20
2018-10-19T01:56:54.106Z,88.70
2018-10-19T01:59:30.088Z,87.70
2018-10-19T02:02:07.261Z,88.00
2018-10-19T02:04:43.979Z,88.00
2018-10-19T02:07:23.474Z,88.20
2018-10-19T02:09:59.268Z,88.60
2018-10-19T02:12:35.825Z,88.00
2018-10-19T02:15:12.257Z,88.40
2018-10-19T02:17:47.969Z,88.80
2018-10-19T02:20:23.869Z,88.80
2018-10-19T02:22:59.779Z,89.30
2018-10-19T02:25:35.115Z,88.90
2018-10-19T02:28:11.152Z,88.80
2018-10-19T02:30:47.116Z,88.90
2018-10-19T02:33:22.048Z,88.40
2018-10-19T02:35:57.916Z,88.80
2018-10-19T02:38:34.589Z,88.60
2018-10-19T02:41:10.349Z,88.90
2018-10-19T02:43:45.428Z,88.40
2018-10-19T02:46:20.592Z,88.10
2018-10-19T02:48:56.348Z,90.20
2018-10-19T02:51:33.450Z,89.70
2018-10-19T02:54:10.171Z,88.30
2018-10-19T02:56:45.403Z,88.20
2018-10-19T02:59:20.400Z,90.50
2018-10-19T03:01:55.517Z,88.10
2018-10-19T03:04:31.331Z,89.00
2018-10-19T03:07:07.564Z,88.00
2018-10-19T03:09:43.276Z,89.10
2018-10-19T03:12:18.349Z,88.40
2018-10-19T03:14:53.343Z,88.90
2018-10-19T03:17:28.337Z,87.70
2018-10-19T03:20:03.760Z,89.40
2018-10-19T03:22:39.674Z,88.10
2018-10-19T03:25:15.657Z,88.50
2018-10-19T03:27:51.715Z,88.80
2018-10-19T03:30:27.542Z,88.30
2018-10-19T03:33:03.778Z,88.90
2018-10-19T03:35:40.500Z,87.90
2018-10-19T03:38:16.294Z,87.60
2018-10-19T03:40:52.317Z,88.60
2018-10-19T03:43:28.886Z,88.30
2018-10-19T03:46:05.457Z,89.10
2018-10-19T03:48:41.877Z,88.00
2018-10-19T03:51:17.656Z,87.70
2018-10-19T03:53:53.391Z,87.20
2018-10-19T03:56:28.735Z,88.50
2018-10-19T03:59:03.962Z,88.30
2018-10-19T04:01:39.763Z,88.80
2018-10-19T04:04:15.544Z,88.00
2018-10-19T04:06:51.672Z,88.00
2018-10-19T04:09:27.325Z,88.10
2018-10-19T04:12:03.012Z,88.00
2018-10-19T04:14:38.981Z,88.70
2018-10-19T04:17:15.056Z,89.20
2018-10-19T04:19:51.658Z,88.80
2018-10-19T04:22:27.980Z,88.40
2018-10-19T04:25:04.741Z,90.00
2018-10-19T04:27:40.314Z,89.20
2018-10-19T04:30:16.153Z,89.00
2018-10-19T04:32:52.535Z,89.30
2018-10-19T04:35:28.934Z,90.00
2018-10-19T04:38:05.360Z,90.00
2018-10-19T04:40:41.256Z,88.70
2018-10-19T04:43:16.963Z,90.50
2018-10-19T04:45:53.793Z,89.80
2018-10-19T04:48:30.408Z,89.60
2018-10-19T04:51:05.969Z,89.60
2018-10-19T04:53:42.500Z,90.40
2018-10-19T04:56:18.630Z,90.10
2018-10-19T04:58:55.499Z,90.00
2018-10-19T05:01:31.058Z,90.30
2018-10-19T05:04:06.556Z,90.10
2018-10-19T05:06:41.935Z,90.20
2018-10-19T05:09:18.621Z,90.30
2018-10-19T05:11:53.804Z,89.90
2018-10-19T05:14:28.991Z,89.80
2018-10-19T05:17:04.725Z,90.10
2018-10-19T05:19:41.108Z,90.40
2018-10-19T05:22:17.224Z,90.20
2018-10-19T05:24:53.204Z,90.40
2018-10-19T05:27:29.080Z,90.30
2018-10-19T05:30:05.961Z,90.20
2018-10-19T05:32:43.504Z,90.70
2018-10-19T05:35:19.863Z,91.80
2018-10-19T05:37:57.177Z,92.40
2018-10-19T05:40:34.125Z,91.10
2018-10-19T05:43:10.448Z,91.10
2018-10-19T05:45:46.490Z,90.90
2018-10-19T05:48:23.282Z,92.10
2018-10-19T05:50:59.077Z,92.40
2018-10-19T05:53:34.887Z,92.70
2018-10-19T05:56:10.314Z,92.20
2018-10-19T05:58:45.613Z,93.70
2018-10-19T06:01:22.286Z,93.60
2018-10-19T06:03:58.098Z,93.60
2018-10-19T06:06:34.010Z,93.10
2018-10-19T06:09:11.035Z,92.90
2018-10-19T06:11:47.502Z,93.10
2018-10-19T06:14:22.844Z,92.90
2018-10-19T06:17:01.569Z,94.10
2018-10-19T06:19:37.477Z,92.90
2018-10-19T06:22:13.411Z,92.40
2018-10-19T06:24:50.945Z,92.10
2018-10-19T06:27:27.310Z,91.60
2018-10-19T06:30:03.339Z,91.50
2018-10-19T06:32:40.174Z,91.80
2018-10-19T06:35:15.148Z,91.40
2018-10-19T06:37:50.881Z,91.40
2018-10-19T06:40:26.524Z,91.70
2018-10-19T06:43:02.392Z,91.40
2018-10-19T06:45:38.107Z,92.10
2018-10-19T06:48:14.108Z,92.10
2018-10-19T06:50:50.838Z,91.80
2018-10-19T06:53:28.666Z,92.90
2018-10-19T06:56:03.809Z,92.60
2018-10-19T06:58:39.527Z,93.20
2018-10-19T07:01:15.245Z,93.00
2018-10-19T07:03:51.260Z,92.20
2018-10-19T07:06:28.036Z,92.20
2018-10-19T07:09:04.375Z,92.30
2018-10-19T07:11:40.289Z,91.70
2018-10-19T07:14:16.343Z,91.70
2018-10-19T07:16:52.294Z,92.30
2018-10-19T07:19:28.467Z,93.80
2018-10-19T07:22:06.205Z,92.80
2018-10-19T07:24:42.167Z,93.20
2018-10-19T07:27:18.758Z,92.60
2018-10-19T07:29:53.726Z,92.40
2018-10-19T07:32:29.877Z,92.80
2018-10-19T07:35:07.021Z,92.70
2018-10-19T07:37:43.336Z,93.10
2018-10-19T07:40:19.229Z,92.80
2018-10-19T07:42:55.853Z,92.20
2018-10-19T07:45:31.962Z,92.00
2018-10-19T07:49:33.274Z,90.90
2018-10-19T07:52:09.601Z,91.10
2018-10-19T07:54:45.436Z,91.10
2018-10-19T07:57:21.779Z,90.70
2018-10-19T07:59:57.915Z,91.40
2018-10-19T08:02:33.962Z,91.40
2018-10-19T08:05:11.407Z,90.10
2018-10-19T08:07:47.380Z,90.70
2018-10-19T08:10:23.066Z,90.50
2018-10-19T08:12:58.973Z,90.90
2018-10-19T08:15:34.795Z,90.20
2018-10-19T08:18:10.732Z,90.40
2018-10-19T08:20:47.352Z,90.10
2018-10-19T08:23:23.035Z,89.20
2018-10-19T08:25:59.445Z,89.30
2018-10-19T08:28:36.553Z,88.40
2018-10-19T08:31:14.156Z,88.40
2018-10-19T08:33:50.740Z,87.30
2018-10-19T08:36:26.675Z,89.70
2018-10-19T08:42:09.983Z,89.30
2018-10-19T08:44:45.017Z,87.60
2018-10-19T08:47:20.916Z,87.60
2018-10-19T08:49:56.668Z,87.50
2018-10-19T08:52:32.724Z,87.30
2018-10-19T08:55:08.461Z,87.20
2018-10-19T08:57:44.292Z,87.50
2018-10-19T09:00:19.876Z,87.90
2018-10-19T09:02:55.928Z,87.20
2018-10-19T09:05:32.627Z,86.70
2018-10-19T09:08:07.664Z,86.90
2018-10-19T09:10:43.716Z,86.40
2018-10-19T09:13:19.781Z,86.50
2018-10-19T09:15:56.335Z,86.50
2018-10-19T09:18:32.359Z,86.00
2018-10-19T09:21:08.326Z,86.20
2018-10-19T09:23:44.408Z,85.20
2018-10-19T09:26:21.320Z,84.60
2018-10-19T09:28:57.348Z,84.40
2018-10-19T09:31:32.307Z,84.20
2018-10-19T09:34:08.331Z,84.10
2018-10-19T09:36:45.236Z,84.20
2018-10-19T09:39:21.038Z,84.70
2018-10-19T09:41:56.824Z,83.50
2018-10-19T09:44:32.229Z,82.50
2018-10-19T09:47:09.149Z,82.50
2018-10-19T09:49:45.750Z,82.00
2018-10-19T09:52:21.838Z,81.70
2018-10-19T09:54:57.766Z,82.30
2018-10-19T09:57:33.613Z,82.60
2018-10-19T10:00:15.444Z,81.10
2018-10-19T10:02:50.910Z,81.10
2018-10-19T10:05:26.965Z,78.40
2018-10-19T10:08:04.172Z,78.90
2018-10-19T10:10:40.587Z,80.20
2018-10-19T10:13:17.366Z,80.70
2018-10-19T10:15:52.427Z,80.70
2018-10-19T10:18:28.084Z,80.20
2018-10-19T10:21:03.835Z,78.90
2018-10-19T10:23:40.200Z,78.70
2018-10-19T10:26:16.551Z,78.60
2018-10-19T10:28:52.383Z,77.50
2018-10-19T10:31:29.593Z,77.10
2018-10-19T10:34:06.262Z,78.40
2018-10-19T10:36:42.402Z,77.10
2018-10-19T10:39:18.717Z,77.70
2018-10-19T10:41:54.372Z,76.60
2018-10-19T10:44:30.683Z,74.70
2018-10-19T10:47:06.062Z,76.10
2018-10-19T10:49:41.811Z,73.20
2018-10-19T10:52:17.688Z,71.90
2018-10-19T10:54:53.684Z,74.80
2018-10-19T10:57:29.408Z,76.50
2018-10-19T11:00:05.971Z,74.20
2018-10-19T11:02:42.104Z,71.90
2018-10-19T11:05:17.806Z,74.00
2018-10-19T11:07:54.053Z,73.20
2018-10-19T11:10:31.139Z,73.50
2018-10-19T11:13:07.481Z,73.00
2018-10-19T11:15:43.969Z,71.10
2018-10-19T11:18:19.958Z,69.60
2018-10-19T11:20:55.847Z,71.40
2018-10-19T11:23:32.994Z,66.70
2018-10-19T11:26:08.847Z,67.20
2018-10-19T11:28:44.672Z,71.30
2018-10-19T11:31:20.350Z,72.90
2018-10-19T11:33:56.153Z,70.80
2018-10-19T11:36:31.956Z,71.40
2018-10-19T11:39:09.654Z,71.00
2018-10-19T11:41:45.405Z,72.80
2018-10-19T11:44:22.047Z,72.00
2018-10-19T11:47:00.476Z,72.00
2018-10-19T11:49:36.929Z,71.20
2018-10-19T11:52:13.502Z,72.50
2018-10-19T11:54:48.495Z,72.70
2018-10-19T11:57:23.466Z,72.70
2018-10-19T11:59:59.376Z,71.40
2018-10-19T12:02:35.788Z,69.80
2018-10-19T12:05:10.972Z,70.30
2018-10-19T12:07:46.939Z,71.40
2018-10-19T12:10:23.637Z,66.70
2018-10-19T12:13:02.530Z,66.00
2018-10-19T12:15:39.050Z,70.00
2018-10-19T12:18:14.829Z,68.50
2018-10-19T12:20:51.447Z,67.50
2018-10-19T12:23:28.203Z,69.90
2018-10-19T12:26:03.989Z,65.80
2018-10-19T12:28:40.197Z,68.80
2018-10-19T12:31:16.133Z,68.90
2018-10-19T12:33:56.502Z,65.30
2018-10-19T12:36:32.910Z,67.40
2018-10-19T12:39:09.757Z,64.90
2018-10-19T12:41:45.800Z,65.80
2018-10-19T12:44:21.496Z,64.50
2018-10-19T12:47:09.858Z,68.30
2018-10-19T12:49:46.517Z,71.80
2018-10-19T12:52:23.087Z,68.60
2018-10-19T12:54:59.478Z,69.10
2018-10-19T12:57:35.803Z,70.30
2018-10-19T13:00:12.577Z,70.70
2018-10-19T13:02:48.652Z,72.60
2018-10-19T13:05:24.405Z,71.70
2018-10-19T13:08:00.735Z,72.40
2018-10-19T13:10:37.401Z,71.30
2018-10-19T13:13:13.446Z,69.20
2018-10-19T13:15:49.765Z,69.60
2018-10-19T13:18:26.723Z,69.60
2018-10-19T13:21:03.495Z,69.00
2018-10-19T13:23:39.243Z,69.40
2018-10-19T13:26:15.132Z,67.80
2018-10-19T13:28:50.906Z,69.00
2018-10-19T13:31:26.829Z,66.30
2018-10-19T13:34:02.793Z,67.50
2018-10-19T13:36:39.539Z,66.60
2018-10-19T13:39:15.321Z,66.20
2018-10-19T13:41:50.869Z,68.30
2018-10-19T13:44:27.330Z,67.50
2018-10-19T13:47:03.793Z,67.20
2018-10-19T13:49:39.882Z,66.30
2018-10-19T13:52:15.958Z,65.80
2018-10-19T13:54:54.201Z,67.90
2018-10-19T13:57:30.798Z,66.80
2018-10-19T14:00:08.052Z,67.40
2018-10-19T14:02:44.809Z,64.00
2018-10-19T14:05:21.223Z,68.60
2018-10-19T14:07:57.521Z,66.70
2018-10-19T14:10:33.212Z,66.40
2018-10-19T14:13:09.349Z,68.40
2018-10-19T14:15:45.870Z,70.10
2018-10-19T14:18:20.905Z,70.30
2018-10-19T14:20:56.245Z,69.70
2018-10-19T14:23:32.046Z,68.00
2018-10-19T14:26:07.971Z,70.70
2018-10-19T14:28:45.872Z,68.80
2018-10-19T14:31:21.892Z,68.60
2018-10-19T14:33:57.477Z,68.70
2018-10-19T14:36:33.769Z,67.40
2018-10-19T14:39:10.296Z,69.50
2018-10-19T14:41:46.220Z,70.00
2018-10-19T14:44:22.798Z,71.80
2018-10-19T14:46:58.624Z,71.60
2018-10-19T14:49:34.638Z,71.20
2018-10-19T14:52:10.498Z,71.20
2018-10-19T14:54:46.243Z,71.60
2018-10-19T14:57:22.091Z,70.70
2018-10-19T14:59:58.154Z,71.10
2018-10-19T15:02:34.830Z,68.30
2018-10-19T15:05:12.998Z,71.60
2018-10-19T15:07:48.689Z,70.00
2018-10-19T15:10:24.916Z,70.00
2018-10-19T15:13:00.534Z,69.20
2018-10-19T15:15:36.447Z,71.10
2018-10-19T15:18:12.348Z,69.50
2018-10-19T15:20:48.160Z,70.60
2018-10-19T15:23:23.906Z,69.80
2018-10-19T15:26:00.769Z,70.50
2018-10-19T15:28:36.670Z,72.00
2018-10-19T15:31:13.514Z,70.70
2018-10-19T15:33:49.200Z,71.50
2018-10-19T15:36:25.270Z,71.60
2018-10-19T15:39:01.024Z,72.40
2018-10-19T15:41:37.475Z,71.90
2018-10-19T15:44:12.645Z,72.20
2018-10-19T15:46:48.059Z,73.00
2018-10-19T15:49:23.726Z,72.40
2018-10-19T15:52:00.182Z,72.40
2018-10-19T15:54:36.413Z,73.10
2018-10-19T15:57:13.274Z,74.20
2018-10-19T15:59:49.238Z,74.80
2018-10-19T16:02:25.372Z,75.00
2018-10-19T16:05:01.900Z,74.80
2018-10-19T16:07:37.239Z,74.90
2018-10-19T16:10:12.999Z,75.10
2018-10-19T16:12:48.040Z,75.40
2018-10-19T16:15:24.024Z,75.60
2018-10-19T16:17:59.846Z,75.80
2018-10-19T16:20:35.659Z,76.00
2018-10-19T16:23:11.435Z,76.30
2018-10-19T16:25:47.375Z,76.30
2018-10-19T16:28:24.340Z,76.50
2018-10-19T16:31:00.059Z,76.80
2018-10-19T16:33:35.820Z,76.90
2018-10-19T16:36:11.706Z,77.50
2018-10-19T16:38:47.631Z,77.50
2018-10-19T16:41:23.637Z,77.60
2018-10-19T16:44:00.669Z,77.40
2018-10-19T16:46:36.572Z,77.80
2018-10-19T16:49:12.004Z,78.70
2018-10-19T16:51:47.892Z,79.10
2018-10-19T16:54:23.110Z,78.80
2018-10-19T16:56:58.919Z,79.10
2018-10-19T16:59:35.079Z,79.70
2018-10-19T17:02:11.954Z,81.50
2018-10-19T17:04:48.615Z,81.70
2018-10-19T17:07:24.334Z,81.40
2018-10-19T17:09:59.576Z,80.80
2018-10-19T17:12:35.724Z,80.70
2018-10-19T17:15:12.304Z,81.10
2018-10-19T17:17:47.385Z,81.90
2018-10-19T17:20:23.136Z,81.90
2018-10-19T17:22:58.997Z,81.40
2018-10-19T17:25:34.779Z,80.70
2018-10-19T17:28:10.701Z,79.80
2018-10-19T17:30:47.388Z,79.60
2018-10-19T17:33:23.220Z,79.50
2018-10-19T17:35:59.118Z,80.10
2018-10-19T17:38:35.788Z,79.80
2018-10-19T17:41:12.612Z,80.00
2018-10-19T17:43:48.383Z,80.40
2018-10-19T17:46:24.894Z,80.90
2018-10-19T17:49:03.065Z,80.70
2018-10-19T17:51:39.840Z,80.70
2018-10-19T17:54:16.523Z,80.20
2018-10-19T17:56:53.229Z,79.90
2018-10-19T17:59:29.168Z,79.80
2018-10-19T18:02:05.635Z,80.10
2018-10-19T18:04:41.281Z,79.80
2018-10-19T18:07:19.186Z,80.00
2018-10-19T18:09:54.848Z,80.00
2018-10-19T18:12:32.395Z,79.60
2018-10-19T18:15:08.415Z,80.30
2018-10-19T18:17:44.713Z,80.00
2018-10-19T18:20:21.592Z,80.00
2018-10-19T18:22:56.803Z,80.10
2018-10-19T18:25:32.734Z,80.00
2018-10-19T18:28:08.331Z,79.90
2018-10-19T18:30:44.137Z,80.30
2018-10-19T18:33:20.148Z,80.00
2018-10-19T18:35:56.504Z,80.00
2018-10-19T18:38:33.125Z,80.00
2018-10-19T18:41:10.002Z,80.80
2018-10-19T18:43:46.459Z,79.90
2018-10-19T18:46:22.375Z,80.00
2018-10-19T18:48:58.230Z,79.90
2018-10-19T18:51:34.118Z,80.10
2018-10-19T18:54:10.186Z,80.00
2018-10-19T18:56:46.058Z,80.60
2018-10-19T18:59:21.968Z,80.20
2018-10-19T19:01:56.845Z,82.30
2018-10-19T19:04:32.643Z,81.00
2018-10-19T19:07:08.484Z,80.10
2018-10-19T19:09:48.714Z,80.20
2018-10-19T19:12:25.207Z,80.20
2018-10-19T19:15:01.266Z,81.90
2018-10-19T19:17:37.257Z,80.30
2018-10-19T19:20:17.939Z,79.90
2018-10-19T19:22:53.633Z,80.60
2018-10-19T19:25:36.355Z,80.50
2018-10-19T19:28:12.485Z,81.00
2018-10-19T19:30:48.467Z,80.60
2018-10-19T19:33:29.236Z,81.10
2018-10-19T19:36:06.011Z,80.10
2018-10-19T19:38:42.618Z,80.30
2018-10-19T19:41:23.752Z,82.30
2018-10-19T19:44:00.413Z,80.60
2018-10-19T19:46:37.178Z,80.90
2018-10-19T19:49:19.536Z,80.70
2018-10-19T19:51:55.785Z,80.20
2018-10-19T19:54:31.640Z,81.00
2018-10-19T19:57:07.370Z,80.40
2018-10-19T19:59:43.345Z,80.20
2018-10-19T20:02:19.077Z,80.60
2018-10-19T20:04:55.235Z,80.80
2018-10-19T20:07:31.033Z,81.60
2018-10-19T20:10:07.400Z,80.70
2018-10-19T20:12:43.225Z,81.30
2018-10-19T20:15:19.795Z,80.80
2018-10-19T20:17:55.163Z,80.40
2018-10-19T20:20:31.119Z,80.90
2018-10-19T20:23:07.705Z,81.40
2018-10-19T20:25:44.057Z,81.20
2018-10-19T20:28:19.497Z,81.70
2018-10-19T20:30:56.227Z,81.70
2018-10-19T20:33:32.138Z,82.20
2018-10-19T20:36:14.996Z,81.10
2018-10-19T20:38:50.666Z,81.40
2018-10-19T20:41:26.882Z,81.40
2018-10-19T20:44:02.563Z,81.70
2018-10-19T20:46:38.536Z,82.50
2018-10-19T20:49:15.550Z,82.00
2018-10-19T20:51:51.289Z,81.80
2018-10-19T20:54:27.197Z,81.60
2018-10-19T20:57:03.099Z,81.30
2018-10-19T20:59:38.910Z,81.10
2018-10-19T21:02:14.066Z,81.90
2018-10-19T21:04:50.657Z,82.70
2018-10-19T21:07:27.620Z,82.20
2018-10-19T21:10:06.105Z,81.30
2018-10-19T21:12:42.765Z,81.50
2018-10-19T21:15:18.924Z,81.10
2018-10-19T21:17:55.470Z,81.80
2018-10-19T21:20:31.755Z,81.00
2018-10-19T21:23:07.651Z,82.40
2018-10-19T21:25:44.092Z,81.50
2018-10-19T21:28:20.867Z,82.00
2018-10-19T21:30:57.586Z,81.80
2018-10-19T21:33:34.132Z,81.30
2018-10-19T21:36:10.482Z,81.40
2018-10-19T21:38:46.553Z,81.60
2018-10-19T21:41:23.173Z,81.50
2018-10-19T21:43:59.104Z,81.80
2018-10-19T21:46:34.293Z,81.10
2018-10-19T21:49:10.299Z,81.20
2018-10-19T21:51:46.292Z,80.80
2018-10-19T21:54:21.478Z,81.80
2018-10-19T21:56:56.802Z,81.90
2018-10-19T21:59:33.125Z,81.80
2018-10-19T22:02:09.714Z,81.40
2018-10-19T22:04:45.409Z,82.60
2018-10-19T22:07:21.158Z,82.20
2018-10-19T22:09:57.054Z,81.50
2018-10-19T22:12:34.300Z,81.90
2018-10-19T22:15:10.849Z,81.40
2018-10-19T22:17:47.407Z,82.90
2018-10-19T22:20:23.375Z,82.30
2018-10-19T22:22:58.587Z,82.50
2018-10-19T22:25:35.286Z,81.50
2018-10-19T22:28:11.160Z,81.40
2018-10-19T22:30:46.992Z,81.80
2018-10-19T22:33:22.669Z,81.50
2018-10-19T22:35:58.562Z,82.30
2018-10-19T22:38:33.595Z,81.30
2018-10-19T22:41:09.031Z,82.60
2018-10-19T22:43:44.689Z,85.20
2018-10-19T22:46:21.632Z,83.20
2018-10-19T22:48:58.091Z,83.80
2018-10-19T22:51:34.007Z,82.00
2018-10-19T22:54:09.190Z,81.60
2018-10-19T22:56:44.448Z,81.90
2018-10-19T22:59:19.667Z,82.30
2018-10-19T23:01:55.621Z,85.30
2018-10-19T23:04:30.963Z,82.60
2018-10-19T23:07:08.038Z,82.20
2018-10-19T23:09:44.420Z,82.30
2018-10-19T23:12:20.133Z,82.60
2018-10-19T23:14:56.846Z,82.30
2018-10-19T23:17:33.915Z,83.80
2018-10-19T23:20:10.455Z,83.70
2018-10-19T23:22:46.797Z,83.00
2018-10-19T23:25:23.115Z,83.70
2018-10-19T23:27:58.981Z,83.60
2018-10-19T23:30:34.893Z,82.50
2018-10-19T23:33:11.082Z,83.70
2018-10-19T23:35:47.652Z,81.60
2018-10-19T23:38:23.441Z,81.80
2018-10-19T23:40:59.318Z,81.70
2018-10-19T23:43:35.348Z,83.30
2018-10-19T23:46:11.169Z,81.90
2018-10-19T23:48:47.228Z,82.70
2018-10-19T23:51:23.080Z,82.40
2018-10-19T23:53:59.035Z,83.20
2018-10-19T23:56:34.228Z,84.30
2018-10-19T23:59:09.190Z,83.30
